createdAt,value
2018-03-09T00:07:03.996Z,995.1
2018-03-09T00:17:04.022Z,995.14
2018-03-09T00:27:04.036Z,995.22
2018-03-09T00:37:04.014Z,995.35
2018-03-09T00:47:04.018Z,995.33
2018-03-09T00:57:04.016Z,995.4
2018-03-09T01:07:04.055Z,995.43
2018-03-09T01:17:04.064Z,995.58
2018-03-09T01:27:04.079Z,995.56
2018-03-09T01:37:04.066Z,995.62
2018-03-09T01:47:04.064Z,995.68
2018-03-09T01:57:04.066Z,995.81
2018-03-09T02:07:04.073Z,995.91
2018-03-09T02:17:04.081Z,996
2018-03-09T02:27:04.091Z,996.07
2018-03-09T02:37:04.099Z,996.06
2018-03-09T02:47:04.120Z,996.16
2018-03-09T02:57:04.128Z,996.29
2018-03-09T03:07:04.141Z,996.38
2018-03-09T03:17:04.116Z,996.54
2018-03-09T03:27:04.140Z,996.65
2018-03-09T03:37:04.142Z,996.74
2018-03-09T03:47:04.132Z,996.79
2018-03-09T03:57:04.151Z,996.87
2018-03-09T04:07:04.202Z,997.12
2018-03-09T04:17:04.191Z,997.16
2018-03-09T04:27:04.217Z,997.13
2018-03-09T04:37:04.196Z,997.17
2018-03-09T04:47:04.198Z,997.27
2018-03-09T04:57:04.207Z,997.28
2018-03-09T05:07:04.204Z,997.37
2018-03-09T05:17:04.207Z,997.47
2018-03-09T05:27:04.224Z,997.57
2018-03-09T05:37:04.243Z,997.62
2018-03-09T05:47:04.258Z,997.82
2018-03-09T05:57:04.258Z,997.88
2018-03-09T06:07:04.259Z,997.89
2018-03-09T06:17:04.325Z,998.02
2018-03-09T06:27:04.266Z,998.2
2018-03-09T06:37:04.264Z,998.26
2018-03-09T06:47:04.292Z,998.41
2018-03-09T06:57:04.284Z,998.41
2018-03-09T07:07:04.302Z,998.49
2018-03-09T07:17:04.368Z,998.67
2018-03-09T07:27:04.322Z,998.75
2018-03-09T07:37:04.344Z,998.81
2018-03-09T07:47:04.334Z,998.95
2018-03-09T07:57:04.345Z,998.95
2018-03-09T08:07:04.349Z,998.97
2018-03-09T08:17:04.380Z,999.1
2018-03-09T08:27:04.394Z,999.21
2018-03-09T08:37:04.388Z,999.17
2018-03-09T08:47:05.469Z,999.17
2018-03-09T08:57:04.398Z,999.27
2018-03-09T09:07:04.491Z,999.31
2018-03-09T09:17:04.437Z,999.45
2018-03-09T09:27:04.520Z,999.57
2018-03-09T09:37:04.461Z,999.6
2018-03-09T09:47:04.510Z,999.66
2018-03-09T09:57:04.488Z,999.78
2018-03-09T10:07:04.553Z,999.73
2018-03-09T10:17:04.513Z,999.75
2018-03-09T10:27:04.581Z,999.8
2018-03-09T10:37:04.543Z,999.8
2018-03-09T10:47:04.597Z,999.82
2018-03-09T10:57:04.556Z,999.88
2018-03-09T11:07:04.617Z,999.8
2018-03-09T11:17:04.600Z,999.77
2018-03-09T11:27:04.539Z,999.82
2018-03-09T11:37:04.606Z,999.76
2018-03-09T11:47:04.660Z,999.7
2018-03-09T11:57:04.614Z,999.7
2018-03-09T12:07:04.586Z,999.6
2018-03-09T12:17:04.669Z,999.4
2018-03-09T12:27:04.601Z,999.27
2018-03-09T12:37:09.766Z,999.31
2018-03-09T12:47:04.659Z,999.37
2018-03-09T12:57:04.702Z,999.36
2018-03-09T13:07:04.674Z,999.3
2018-03-09T13:17:04.720Z,999.24
2018-03-09T13:27:04.684Z,999.18
2018-03-09T13:37:04.762Z,999.31
2018-03-09T13:47:04.701Z,999.42
2018-03-09T13:57:07.731Z,999.4
2018-03-09T14:07:04.717Z,999.35
2018-03-09T14:17:04.807Z,999.17
2018-03-09T14:27:04.785Z,999.01
2018-03-09T14:37:05.736Z,999.16
2018-03-09T14:47:04.782Z,999.2
2018-03-09T14:57:04.849Z,999.14
2018-03-09T15:07:04.785Z,999.08
2018-03-09T15:17:04.851Z,999.03
2018-03-09T15:27:04.764Z,999.06
2018-03-09T15:37:04.807Z,998.95
2018-03-09T15:47:04.944Z,998.96
2018-03-09T15:57:04.893Z,998.87
2018-03-09T16:07:04.848Z,998.78
2018-03-09T16:17:05.912Z,998.67
2018-03-09T16:27:04.877Z,998.58
2018-03-09T16:37:04.905Z,998.67
2018-03-09T16:47:04.875Z,998.72
2018-03-09T16:57:04.951Z,998.61
2018-03-09T17:07:05.922Z,998.5
2018-03-09T17:17:04.855Z,998.59
2018-03-09T17:27:04.985Z,998.67
2018-03-09T17:37:05.046Z,998.5
2018-03-09T17:47:05.005Z,998.37
2018-03-09T17:57:04.947Z,998.43
2018-03-09T18:07:04.919Z,998.53
2018-03-09T18:17:04.999Z,998.53
2018-03-09T18:27:04.960Z,998.55
2018-03-09T18:37:05.029Z,998.48
2018-03-09T18:47:04.993Z,998.34
2018-03-09T18:57:05.445Z,998.33
2018-03-09T19:07:06.269Z,998.27
2018-03-09T19:17:05.070Z,998.17
2018-03-09T19:27:05.012Z,998.01
2018-03-09T19:37:05.079Z,997.9
2018-03-09T19:47:05.064Z,998.01
2018-03-09T19:57:04.994Z,997.94
2018-03-09T20:07:05.116Z,997.79
2018-03-09T20:17:05.151Z,997.78
2018-03-09T20:27:05.181Z,997.8
2018-03-09T20:37:05.069Z,997.66
2018-03-09T20:47:05.274Z,997.69
2018-03-09T20:57:05.072Z,997.64
2018-03-09T21:07:05.569Z,997.59
2018-03-09T21:17:05.111Z,997.64
2018-03-09T21:27:05.176Z,997.49
2018-03-09T21:37:05.142Z,997.36
2018-03-09T21:47:05.176Z,997.35
2018-03-09T21:57:05.485Z,997.18
2018-03-09T22:07:05.213Z,996.91
2018-03-09T22:17:05.160Z,996.73
2018-03-09T22:27:05.224Z,996.66
2018-03-09T22:38:00.037Z,996.59
2018-03-09T22:47:05.172Z,996.37
2018-03-09T22:57:05.227Z,996.33
2018-03-09T23:07:05.185Z,996.21
2018-03-09T23:17:05.251Z,996.13
2018-03-09T23:27:05.210Z,996.02
2018-03-09T23:37:05.272Z,995.9
2018-03-09T23:47:05.266Z,995.74
2018-03-09T23:57:05.286Z,995.65
